Time;durP1;ratioP1;P1;durP2;ratioP2;P2;SDS_P1;SDS_P2;PMS_P1;PMS_P2;Temp;Humidity;BMP_temperature;BMP_pressure;BME280_temperature;BME280_humidity;BME280_pressure;Samples;Min_cycle;Max_cycle;Signal;HPM_P1;HPM_P2
2022/01/14 00:00:55;;;;;;;31.45;16.40;;;;;;;;;;5095520;28;20293;-75
2022/01/14 00:03:21;;;;;;;41.42;20.48;;;;;;;;;;5095626;28;20089;-74
2022/01/14 00:05:47;;;;;;;39.37;18.80;;;;;;;;;;5094447;28;20523;-75
2022/01/14 00:08:13;;;;;;;40.83;18.90;;;;;;;;;;5094396;28;20316;-75
2022/01/14 00:10:41;;;;;;;42.88;19.27;;;;;;;;;;5094292;28;20278;-76
2022/01/14 00:13:26;;;;;;;35.58;18.63;;;;;;;;;;5095596;28;20044;-74
2022/01/14 00:15:53;;;;;;;32.22;17.75;;;;;;;;;;5095313;28;20055;-75
2022/01/14 00:18:19;;;;;;;41.35;19.95;;;;;;;;;;5095508;28;20083;-74
2022/01/14 00:20:45;;;;;;;34.15;18.05;;;;;;;;;;5094214;28;20057;-74
2022/01/14 00:23:11;;;;;;;30.97;16.83;;;;;;;;;;5094471;28;20052;-74
2022/01/14 00:34:01;;;;;;;33.20;18.15;;;;;;;;;;5094992;28;20102;-75
2022/01/14 00:36:27;;;;;;;32.53;17.37;;;;;;;;;;5095206;28;20501;-74
2022/01/14 00:38:53;;;;;;;36.00;18.55;;;;;;;;;;5094911;28;20286;-75
2022/01/14 00:41:19;;;;;;;39.92;19.38;;;;;;;;;;5095363;28;20048;-74
2022/01/14 00:43:45;;;;;;;34.20;19.52;;;;;;;;;;5094766;28;20066;-75
2022/01/14 00:46:11;;;;;;;37.40;20.20;;;;;;;;;;5095183;28;20093;-75
2022/01/14 00:48:38;;;;;;;34.35;17.90;;;;;;;;;;5094884;28;20290;-75
2022/01/14 00:51:05;;;;;;;39.70;19.67;;;;;;;;;;5094591;28;20052;-75
2022/01/14 00:53:31;;;;;;;43.28;20.83;;;;;;;;;;5094809;28;20297;-74
2022/01/14 00:56:08;;;;;;;33.10;18.73;;;;;;;;;;5094531;28;20091;-74
2022/01/14 01:01:19;;;;;;;35.63;20.90;;;;;;;;;;5095067;28;20075;-75
2022/01/14 01:03:45;;;;;;;42.47;21.07;;;;;;;;;;5094522;28;20504;-79
2022/01/14 01:06:12;;;;;;;37.00;18.73;;;;;;;;;;5094839;28;20274;-75
2022/01/14 01:08:38;;;;;;;36.97;17.90;;;;;;;;;;5094514;28;20281;-74
2022/01/14 01:11:06;;;;;;;45.50;18.60;;;;;;;;;;5094233;28;20094;-75
2022/01/14 01:13:36;;;;;;;40.60;19.13;;;;;;;;;;5093332;28;20063;-74
2022/01/14 01:16:02;;;;;;;39.00;17.92;;;;;;;;;;5094032;28;20332;-75
2022/01/14 01:18:28;;;;;;;37.83;19.37;;;;;;;;;;5093350;28;20052;-75
2022/01/14 01:20:55;;;;;;;42.05;19.75;;;;;;;;;;5093800;28;20286;-75
2022/01/14 01:23:21;;;;;;;41.30;19.05;;;;;;;;;;5094163;28;20048;-75
2022/01/14 01:25:54;;;;;;;41.35;18.58;;;;;;;;;;5094243;28;20127;-74
2022/01/14 01:28:20;;;;;;;40.83;18.35;;;;;;;;;;5094442;28;20048;-74
2022/01/14 01:33:26;;;;;;;37.07;19.20;;;;;;;;;;5094290;28;20060;-75
2022/01/14 01:35:53;;;;;;;41.88;19.30;;;;;;;;;;5076014;28;20361;-75
2022/01/14 01:38:19;;;;;;;34.33;17.85;;;;;;;;;;5093981;28;20056;-75
2022/01/14 01:40:46;;;;;;;41.35;19.45;;;;;;;;;;5076095;28;20048;-75
2022/01/14 01:43:13;;;;;;;40.57;19.83;;;;;;;;;;5093521;28;20044;-75
2022/01/14 01:45:39;;;;;;;43.72;19.40;;;;;;;;;;5092889;28;20660;-75
2022/01/14 01:48:05;;;;;;;41.58;20.65;;;;;;;;;;5093514;28;20472;-75
2022/01/14 01:50:32;;;;;;;44.47;18.20;;;;;;;;;;5093789;28;20051;-75
2022/01/14 01:52:58;;;;;;;41.73;18.87;;;;;;;;;;5092397;28;20309;-75
2022/01/14 01:55:24;;;;;;;44.50;18.00;;;;;;;;;;5092393;28;20290;-75
2022/01/14 01:57:51;;;;;;;42.25;18.10;;;;;;;;;;5092691;28;20669;-75
2022/01/14 02:00:19;;;;;;;40.63;17.35;;;;;;;;;;5092314;28;20047;-75
2022/01/14 02:02:47;;;;;;;37.45;17.73;;;;;;;;;;5093636;28;20040;-75
2022/01/14 02:05:14;;;;;;;46.20;17.87;;;;;;;;;;5093050;28;20112;-74
2022/01/14 02:07:41;;;;;;;43.20;18.92;;;;;;;;;;5093513;28;20322;-75
2022/01/14 02:10:07;;;;;;;45.90;19.30;;;;;;;;;;5093163;28;20052;-75
2022/01/14 02:12:38;;;;;;;35.77;16.83;;;;;;;;;;5093516;28;20282;-75
2022/01/14 02:18:13;;;;;;;38.93;17.97;;;;;;;;;;5093517;28;20320;-74
2022/01/14 02:23:17;;;;;;;33.88;17.20;;;;;;;;;;5093008;28;20282;-74
2022/01/14 02:25:45;;;;;;;42.43;18.97;;;;;;;;;;5093440;28;20052;-74
2022/01/14 02:28:15;;;;;;;37.92;17.63;;;;;;;;;;5092888;28;20351;-74
2022/01/14 02:30:43;;;;;;;45.37;18.23;;;;;;;;;;5093120;28;20139;-74
2022/01/14 02:33:10;;;;;;;42.13;18.90;;;;;;;;;;5092406;28;20278;-74
2022/01/14 02:35:37;;;;;;;40.83;18.90;;;;;;;;;;5092173;28;20373;-75
2022/01/14 02:38:04;;;;;;;40.07;17.20;;;;;;;;;;5092937;28;20282;-75
2022/01/14 02:40:30;;;;;;;48.97;19.55;;;;;;;;;;5092101;28;20278;-74
2022/01/14 02:42:59;;;;;;;34.63;17.73;;;;;;;;;;5093143;28;20048;-75
2022/01/14 02:45:30;;;;;;;42.77;19.43;;;;;;;;;;5092094;28;20055;-75
2022/01/14 02:47:56;;;;;;;40.63;19.37;;;;;;;;;;5093176;28;20286;-74
2022/01/14 02:50:24;;;;;;;44.20;18.60;;;;;;;;;;5091692;28;20344;-75
2022/01/14 02:55:21;;;;;;;42.37;19.87;;;;;;;;;;5092631;28;20583;-75
2022/01/14 02:57:51;;;;;;;39.00;18.90;;;;;;;;;;5093420;28;20288;-74
2022/01/14 03:00:19;;;;;;;43.25;19.08;;;;;;;;;;5092670;28;20306;-74
2022/01/14 03:02:46;;;;;;;46.03;19.90;;;;;;;;;;5075239;28;20043;-74
2022/01/14 03:05:12;;;;;;;47.92;19.65;;;;;;;;;;5091317;28;20092;-75
2022/01/14 03:07:39;;;;;;;42.20;19.50;;;;;;;;;;5092774;28;20055;-75
2022/01/14 03:10:06;;;;;;;41.00;18.73;;;;;;;;;;5092538;28;20289;-75
2022/01/14 03:12:32;;;;;;;42.00;17.67;;;;;;;;;;5092759;28;20634;-75
2022/01/14 03:14:58;;;;;;;41.80;18.10;;;;;;;;;;5092841;28;20281;-75
2022/01/14 03:17:24;;;;;;;35.80;17.07;;;;;;;;;;5092482;28;20287;-74
2022/01/14 03:19:50;;;;;;;31.97;18.13;;;;;;;;;;5092684;28;20288;-74
2022/01/14 03:22:28;;;;;;;43.75;17.58;;;;;;;;;;5092382;28;20341;-74
2022/01/14 03:27:21;;;;;;;45.27;19.07;;;;;;;;;;5092348;28;20625;-75
2022/01/14 03:29:47;;;;;;;42.03;19.97;;;;;;;;;;5092487;28;20627;-75
2022/01/14 03:32:13;;;;;;;41.67;17.80;;;;;;;;;;5092018;28;20856;-75
2022/01/14 03:34:39;;;;;;;46.17;19.60;;;;;;;;;;5092556;28;20286;-75
2022/01/14 03:37:06;;;;;;;40.27;17.07;;;;;;;;;;5092208;28;20282;-76
2022/01/14 03:39:32;;;;;;;34.23;18.30;;;;;;;;;;5092477;28;20833;-74
2022/01/14 03:41:58;;;;;;;41.03;17.60;;;;;;;;;;5092452;28;20270;-75
2022/01/14 03:44:24;;;;;;;38.17;17.90;;;;;;;;;;5092502;28;20306;-75
2022/01/14 03:46:50;;;;;;;46.57;18.97;;;;;;;;;;5096251;28;20093;-74
2022/01/14 03:49:16;;;;;;;39.10;19.98;;;;;;;;;;5094851;28;20290;-74
2022/01/14 03:51:43;;;;;;;38.53;19.73;;;;;;;;;;5096289;28;20044;-74
2022/01/14 03:54:09;;;;;;;33.77;17.80;;;;;;;;;;5094601;28;20278;-75
2022/01/14 03:56:35;;;;;;;38.07;18.10;;;;;;;;;;5096287;28;20420;-74
2022/01/14 03:59:03;;;;;;;41.13;17.77;;;;;;;;;;5094656;28;20290;-74
2022/01/14 04:01:29;;;;;;;36.47;19.13;;;;;;;;;;5095546;28;20284;-74
2022/01/14 04:03:55;;;;;;;40.30;18.83;;;;;;;;;;5095753;28;20305;-74
2022/01/14 04:06:21;;;;;;;40.87;17.77;;;;;;;;;;5095469;28;20332;-74
2022/01/14 04:08:47;;;;;;;36.13;18.40;;;;;;;;;;5095853;28;20282;-74
2022/01/14 04:11:14;;;;;;;40.00;19.93;;;;;;;;;;5095427;28;20318;-74
2022/01/14 04:13:48;;;;;;;38.07;19.83;;;;;;;;;;5095606;28;20365;-74
2022/01/14 04:16:15;;;;;;;44.90;20.10;;;;;;;;;;5095403;28;20293;-75
2022/01/14 04:18:41;;;;;;;39.87;19.63;;;;;;;;;;5095557;28;20282;-74
2022/01/14 04:21:07;;;;;;;36.33;19.73;;;;;;;;;;5095643;28;20347;-74
2022/01/14 04:23:33;;;;;;;34.63;20.07;;;;;;;;;;5094178;28;20297;-74
2022/01/14 04:26:00;;;;;;;42.37;19.67;;;;;;;;;;5095596;28;20304;-74
2022/01/14 04:28:29;;;;;;;38.03;19.17;;;;;;;;;;5095071;28;20283;-74
2022/01/14 04:30:56;;;;;;;41.03;21.00;;;;;;;;;;5093663;28;20135;-74
2022/01/14 04:33:26;;;;;;;41.72;19.70;;;;;;;;;;5095038;28;20324;-74
2022/01/14 04:35:54;;;;;;;42.10;19.60;;;;;;;;;;5095132;28;20048;-74
2022/01/14 04:38:20;;;;;;;36.40;19.53;;;;;;;;;;5094825;28;20282;-74
2022/01/14 04:40:46;;;;;;;41.87;19.70;;;;;;;;;;5093912;28;20278;-74
2022/01/14 04:43:16;;;;;;;41.17;19.03;;;;;;;;;;5094806;28;20285;-79
2022/01/14 04:45:55;;;;;;;37.77;19.37;;;;;;;;;;5094959;28;20294;-74
2022/01/14 04:48:21;;;;;;;33.17;18.23;;;;;;;;;;5094819;28;20318;-74
2022/01/14 04:50:47;;;;;;;34.73;18.37;;;;;;;;;;5093995;28;20286;-74
2022/01/14 04:53:14;;;;;;;36.67;18.73;;;;;;;;;;5094740;28;20282;-80
2022/01/14 04:55:40;;;;;;;36.10;19.10;;;;;;;;;;5093382;28;20318;-74
2022/01/14 04:58:06;;;;;;;36.30;20.00;;;;;;;;;;5093899;28;20055;-74
2022/01/14 05:00:32;;;;;;;42.87;20.20;;;;;;;;;;5094424;28;20420;-74
2022/01/14 05:02:59;;;;;;;42.00;21.80;;;;;;;;;;5094723;28;20351;-74
2022/01/14 05:05:29;;;;;;;40.93;20.23;;;;;;;;;;5094343;28;20681;-74
2022/01/14 05:07:55;;;;;;;35.10;19.03;;;;;;;;;;5094746;28;20323;-74
2022/01/14 05:10:34;;;;;;;42.83;20.37;;;;;;;;;;5094336;28;20368;-74
2022/01/14 05:13:01;;;;;;;38.83;18.93;;;;;;;;;;5094567;28;20318;-74
2022/01/14 05:15:27;;;;;;;37.70;20.20;;;;;;;;;;5093228;28;20622;-74
2022/01/14 05:17:53;;;;;;;41.00;19.07;;;;;;;;;;5093497;28;20358;-74
2022/01/14 05:20:19;;;;;;;35.27;19.60;;;;;;;;;;5094205;28;20290;-74
2022/01/14 05:22:46;;;;;;;37.77;20.70;;;;;;;;;;5094393;28;20293;-74
2022/01/14 05:25:13;;;;;;;32.70;19.53;;;;;;;;;;5094186;28;20329;-74
2022/01/14 05:27:40;;;;;;;34.77;19.07;;;;;;;;;;5093965;28;20286;-74
2022/01/14 05:30:07;;;;;;;35.17;19.20;;;;;;;;;;5094234;28;20301;-74
2022/01/14 05:32:34;;;;;;;37.17;19.40;;;;;;;;;;5092626;28;20291;-74
2022/01/14 05:35:00;;;;;;;36.77;19.07;;;;;;;;;;5094256;28;20278;-74
2022/01/14 05:37:26;;;;;;;34.80;18.57;;;;;;;;;;5092728;28;20342;-74
2022/01/14 05:39:52;;;;;;;38.90;20.47;;;;;;;;;;5094323;28;20678;-74
2022/01/14 05:42:18;;;;;;;36.50;20.17;;;;;;;;;;5094007;28;20643;-74
2022/01/14 05:44:44;;;;;;;40.90;19.20;;;;;;;;;;5093826;28;20784;-74
2022/01/14 05:47:11;;;;;;;34.63;19.07;;;;;;;;;;5093867;28;20289;-74
2022/01/14 05:49:37;;;;;;;33.30;20.53;;;;;;;;;;5093548;28;20286;-74
2022/01/14 05:52:03;;;;;;;30.60;17.50;;;;;;;;;;5092812;28;20782;-74
2022/01/14 05:54:29;;;;;;;39.97;19.70;;;;;;;;;;5093121;28;20788;-74
2022/01/14 05:56:55;;;;;;;39.33;17.70;;;;;;;;;;5093668;28;20135;-74
2022/01/14 05:59:21;;;;;;;33.70;18.23;;;;;;;;;;5092458;28;20380;-80
2022/01/14 06:01:47;;;;;;;34.83;19.47;;;;;;;;;;5093900;28;20274;-74
2022/01/14 06:04:14;;;;;;;37.13;18.87;;;;;;;;;;5092363;28;20797;-74
2022/01/14 06:06:40;;;;;;;36.83;18.50;;;;;;;;;;5092153;28;20290;-75
2022/01/14 06:09:06;;;;;;;35.90;17.73;;;;;;;;;;5075043;28;20278;-74
2022/01/14 06:11:32;;;;;;;37.73;19.07;;;;;;;;;;5092053;28;20285;-74
2022/01/14 06:13:58;;;;;;;36.40;17.63;;;;;;;;;;5092301;28;20774;-74
2022/01/14 06:16:24;;;;;;;39.90;18.50;;;;;;;;;;5093143;28;20665;-75
2022/01/14 06:18:50;;;;;;;39.47;18.97;;;;;;;;;;5093386;28;20282;-74
2022/01/14 06:21:16;;;;;;;31.83;18.07;;;;;;;;;;5093371;28;20282;-74
2022/01/14 06:23:42;;;;;;;35.70;17.57;;;;;;;;;;5092952;28;20302;-75
2022/01/14 06:26:09;;;;;;;33.50;16.93;;;;;;;;;;5093261;28;20281;-74
2022/01/14 06:28:35;;;;;;;35.03;17.47;;;;;;;;;;5092992;28;20301;-75
2022/01/14 06:31:01;;;;;;;38.17;17.13;;;;;;;;;;5093360;28;20301;-74
2022/01/14 06:33:27;;;;;;;41.70;19.43;;;;;;;;;;5092909;28;20289;-75
2022/01/14 06:35:53;;;;;;;28.33;16.17;;;;;;;;;;5093077;28;20288;-74
2022/01/14 06:38:20;;;;;;;39.90;17.60;;;;;;;;;;5091559;28;20774;-74
2022/01/14 06:40:49;;;;;;;30.43;16.17;;;;;;;;;;5092800;28;20293;-74
2022/01/14 06:43:15;;;;;;;31.10;16.93;;;;;;;;;;5093025;28;20277;-74
2022/01/14 06:45:42;;;;;;;32.13;15.23;;;;;;;;;;5092615;28;20294;-74
2022/01/14 06:48:08;;;;;;;34.30;17.17;;;;;;;;;;5091858;28;20424;-74
2022/01/14 06:50:34;;;;;;;32.87;16.20;;;;;;;;;;5092779;28;20290;-74
2022/01/14 06:53:00;;;;;;;34.60;15.97;;;;;;;;;;5092977;28;20607;-74
2022/01/14 06:55:27;;;;;;;33.53;16.63;;;;;;;;;;5092992;28;20270;-74
2022/01/14 06:57:53;;;;;;;30.43;15.30;;;;;;;;;;5092891;28;20305;-74
2022/01/14 07:00:19;;;;;;;33.80;15.60;;;;;;;;;;5091655;28;20290;-75
2022/01/14 07:02:46;;;;;;;33.40;16.03;;;;;;;;;;5092590;28;20646;-75
2022/01/14 07:05:12;;;;;;;33.60;16.70;;;;;;;;;;5092806;28;20638;-74
2022/01/14 07:07:38;;;;;;;28.77;15.50;;;;;;;;;;5092518;28;20290;-74
2022/01/14 07:10:05;;;;;;;34.47;15.47;;;;;;;;;;5092846;28;20331;-74
2022/01/14 07:12:33;;;;;;;35.87;15.67;;;;;;;;;;5092421;28;20286;-74
2022/01/14 07:14:59;;;;;;;35.63;15.57;;;;;;;;;;5093018;28;20393;-74
2022/01/14 07:17:26;;;;;;;31.30;14.27;;;;;;;;;;5092739;28;20290;-74
2022/01/14 07:19:55;;;;;;;26.63;14.33;;;;;;;;;;5093832;28;20432;-74
2022/01/14 07:22:21;;;;;;;32.83;14.47;;;;;;;;;;5096628;28;20293;-74
2022/01/14 07:24:47;;;;;;;27.23;14.17;;;;;;;;;;5096285;28;20642;-75
2022/01/14 07:27:14;;;;;;;30.97;15.20;;;;;;;;;;5095856;28;20322;-74
2022/01/14 07:29:40;;;;;;;34.53;14.87;;;;;;;;;;5096124;28;20688;-74
2022/01/14 07:32:07;;;;;;;29.30;14.30;;;;;;;;;;5096508;28;20286;-74
2022/01/14 07:34:33;;;;;;;29.90;13.93;;;;;;;;;;5095075;28;20290;-75
2022/01/14 07:36:59;;;;;;;30.03;13.07;;;;;;;;;;5096734;28;20284;-74
2022/01/14 07:39:26;;;;;;;35.50;13.17;;;;;;;;;;5096511;28;20294;-74
2022/01/14 07:41:52;;;;;;;30.00;13.00;;;;;;;;;;5094880;28;20284;-74
2022/01/14 07:44:19;;;;;;;34.20;13.33;;;;;;;;;;5096315;28;20712;-74
2022/01/14 07:46:45;;;;;;;32.80;12.47;;;;;;;;;;5095916;28;20828;-74
2022/01/14 07:49:11;;;;;;;31.37;13.40;;;;;;;;;;5096193;28;20328;-74
2022/01/14 07:51:37;;;;;;;28.97;11.63;;;;;;;;;;5095867;28;20607;-75
2022/01/14 07:54:06;;;;;;;29.17;11.80;;;;;;;;;;5096069;28;20285;-74
2022/01/14 07:56:45;;;;;;;32.97;11.97;;;;;;;;;;5095984;28;20419;-74
2022/01/14 07:59:12;;;;;;;24.40;11.33;;;;;;;;;;5095944;28;20410;-74
2022/01/14 08:01:38;;;;;;;26.33;10.33;;;;;;;;;;5095619;28;20279;-75
2022/01/14 08:04:05;;;;;;;22.77;10.43;;;;;;;;;;5094888;28;20704;-74
2022/01/14 08:06:33;;;;;;;25.73;8.87;;;;;;;;;;5095588;28;20748;-74
2022/01/14 08:08:59;;;;;;;23.57;9.67;;;;;;;;;;5095534;28;20383;-74
2022/01/14 08:11:25;;;;;;;26.60;9.03;;;;;;;;;;5095751;28;20365;-74
2022/01/14 08:13:51;;;;;;;24.83;10.10;;;;;;;;;;5095433;28;20278;-74
2022/01/14 08:16:17;;;;;;;23.13;10.30;;;;;;;;;;5094473;28;20538;-74
2022/01/14 08:18:44;;;;;;;23.97;9.93;;;;;;;;;;5095357;28;20317;-75
2022/01/14 08:21:10;;;;;;;27.13;9.37;;;;;;;;;;5094364;28;20281;-74
2022/01/14 08:23:38;;;;;;;23.00;9.00;;;;;;;;;;5094443;28;20293;-74
2022/01/14 08:26:04;;;;;;;27.87;9.80;;;;;;;;;;5095584;28;20286;-75
2022/01/14 08:28:30;;;;;;;26.83;9.50;;;;;;;;;;5095464;28;20282;-75
2022/01/14 08:30:56;;;;;;;27.97;9.20;;;;;;;;;;5094397;28;20294;-75
2022/01/14 08:33:22;;;;;;;20.07;9.07;;;;;;;;;;5095397;28;20273;-73
2022/01/14 08:35:49;;;;;;;20.40;8.73;;;;;;;;;;5095031;28;20319;-74
2022/01/14 08:38:15;;;;;;;30.07;8.87;;;;;;;;;;5095299;28;20682;-74
2022/01/14 08:40:41;;;;;;;25.87;8.67;;;;;;;;;;5093738;28;20353;-75
2022/01/14 08:43:08;;;;;;;20.90;7.67;;;;;;;;;;5095280;28;20412;-74
2022/01/14 08:45:34;;;;;;;24.70;8.20;;;;;;;;;;5093877;28;20372;-74
2022/01/14 08:48:00;;;;;;;23.67;8.47;;;;;;;;;;5094752;28;20308;-74
2022/01/14 08:50:31;;;;;;;23.30;7.33;;;;;;;;;;5095010;28;20282;-74
2022/01/14 08:52:59;;;;;;;20.80;8.10;;;;;;;;;;5094719;28;20455;-74
2022/01/14 08:55:25;;;;;;;22.87;7.53;;;;;;;;;;5094943;28;20282;-74
2022/01/14 08:57:52;;;;;;;18.73;7.23;;;;;;;;;;5093416;28;20754;-75
2022/01/14 09:00:19;;;;;;;16.37;7.00;;;;;;;;;;5094705;28;20415;-74
2022/01/14 09:02:45;;;;;;;21.63;7.23;;;;;;;;;;5094413;28;20357;-75
2022/01/14 09:05:11;;;;;;;20.37;7.20;;;;;;;;;;5094809;28;20329;-74
2022/01/14 09:07:38;;;;;;;25.03;7.07;;;;;;;;;;5094602;28;20401;-74
2022/01/14 09:10:04;;;;;;;19.87;6.57;;;;;;;;;;5094237;28;20293;-74
2022/01/14 09:12:31;;;;;;;17.30;6.17;;;;;;;;;;5093627;28;20286;-74
2022/01/14 09:14:57;;;;;;;18.50;6.07;;;;;;;;;;5094251;28;20631;-75
2022/01/14 09:17:23;;;;;;;16.47;5.43;;;;;;;;;;5094446;28;20331;-74
2022/01/14 09:19:49;;;;;;;18.67;6.37;;;;;;;;;;5094083;28;20290;-74
2022/01/14 09:22:17;;;;;;;18.57;5.40;;;;;;;;;;5094562;28;20631;-74
2022/01/14 09:24:44;;;;;;;15.77;5.50;;;;;;;;;;5094223;28;20451;-74
2022/01/14 09:27:10;;;;;;;16.43;6.07;;;;;;;;;;5093344;28;20619;-74
2022/01/14 09:29:36;;;;;;;15.93;5.90;;;;;;;;;;5094136;28;20315;-74
2022/01/14 09:32:02;;;;;;;17.77;5.43;;;;;;;;;;5093974;28;20278;-74
2022/01/14 09:34:28;;;;;;;19.97;6.43;;;;;;;;;;5094106;28;20278;-73
2022/01/14 09:36:55;;;;;;;12.40;4.87;;;;;;;;;;5093776;28;20285;-72
2022/01/14 09:39:21;;;;;;;23.57;5.40;;;;;;;;;;5094347;28;20289;-72
2022/01/14 09:41:47;;;;;;;17.13;4.87;;;;;;;;;;5093757;28;20621;-73
2022/01/14 09:44:17;;;;;;;18.20;4.50;;;;;;;;;;5093865;28;20298;-73
2022/01/14 09:46:43;;;;;;;17.07;4.90;;;;;;;;;;5094112;28;20335;-72
2022/01/14 09:49:10;;;;;;;18.77;4.60;;;;;;;;;;5092676;28;20287;-72
2022/01/14 09:51:36;;;;;;;13.97;4.30;;;;;;;;;;5093918;28;20327;-74
2022/01/14 09:54:04;;;;;;;16.17;4.53;;;;;;;;;;5093532;28;20274;-73
2022/01/14 09:56:30;;;;;;;17.87;5.33;;;;;;;;;;5094041;28;20335;-79
2022/01/14 09:58:56;;;;;;;15.07;4.20;;;;;;;;;;5093503;28;20282;-78
2022/01/14 10:01:24;;;;;;;16.33;3.83;;;;;;;;;;5093643;28;20286;-78
2022/01/14 10:03:53;;;;;;;19.13;3.83;;;;;;;;;;5093321;28;20298;-79
2022/01/14 10:06:35;;;;;;;15.70;3.90;;;;;;;;;;5092699;28;20402;-78
2022/01/14 10:09:28;;;;;;;21.97;3.83;;;;;;;;;;5093201;28;20286;-78
2022/01/14 10:12:06;;;;;;;21.33;4.17;;;;;;;;;;5092163;28;20329;-78
2022/01/14 10:14:34;;;;;;;15.17;3.10;;;;;;;;;;5093454;28;20819;-77
2022/01/14 10:17:01;;;;;;;19.20;3.30;;;;;;;;;;5093193;28;20325;-77
2022/01/14 10:19:28;;;;;;;17.80;3.23;;;;;;;;;;5093583;28;20289;-77
2022/01/14 10:21:55;;;;;;;18.40;4.10;;;;;;;;;;5092988;28;20285;-79
2022/01/14 10:24:27;;;;;;;16.83;3.53;;;;;;;;;;5092369;28;20388;-80
2022/01/14 10:26:58;;;;;;;17.50;4.33;;;;;;;;;;5093251;28;20290;-82
2022/01/14 10:29:32;;;;;;;20.90;3.83;;;;;;;;;;5092062;28;20278;-81
2022/01/14 10:31:59;;;;;;;17.65;4.07;;;;;;;;;;5092148;28;20313;-83
2022/01/14 10:34:26;;;;;;;16.47;4.10;;;;;;;;;;5075512;28;20446;-80
2022/01/14 10:37:08;;;;;;;13.53;3.37;;;;;;;;;;5092125;28;20343;-87
2022/01/14 10:39:34;;;;;;;12.13;3.80;;;;;;;;;;5093187;28;20282;-79
2022/01/14 10:42:00;;;;;;;20.43;3.23;;;;;;;;;;5091899;28;20378;-79
2022/01/14 10:44:28;;;;;;;14.80;3.30;;;;;;;;;;5092173;28;20749;-79
2022/01/14 10:47:10;;;;;;;14.93;4.33;;;;;;;;;;5092005;28;20352;-79
2022/01/14 10:49:37;;;;;;;18.97;3.63;;;;;;;;;;5092957;28;20317;-74
2022/01/14 10:52:17;;;;;;;16.13;3.33;;;;;;;;;;5092715;28;20673;-80
2022/01/14 10:54:45;;;;;;;14.30;3.40;;;;;;;;;;5094289;28;20747;-73
2022/01/14 10:57:31;;;;;;;17.90;4.03;;;;;;;;;;5096871;28;20361;-73
2022/01/14 10:59:58;;;;;;;15.90;3.47;;;;;;;;;;5097002;28;20672;-75
2022/01/14 11:02:48;;;;;;;18.40;3.87;;;;;;;;;;5097325;28;20056;-74
2022/01/14 11:05:15;;;;;;;16.43;3.80;;;;;;;;;;5095657;28;20305;-75
2022/01/14 11:07:42;;;;;;;20.00;3.73;;;;;;;;;;5096786;28;20701;-75
2022/01/14 11:10:20;;;;;;;15.27;4.07;;;;;;;;;;5096319;28;20774;-76
2022/01/14 11:12:46;;;;;;;15.23;3.70;;;;;;;;;;5096828;28;20294;-74
2022/01/14 11:15:13;;;;;;;16.00;3.60;;;;;;;;;;5096179;28;20813;-80
2022/01/14 11:17:40;;;;;;;13.23;3.50;;;;;;;;;;5096769;28;20633;-77
2022/01/14 11:20:08;;;;;;;17.47;4.40;;;;;;;;;;5096491;28;20693;-75
2022/01/14 11:25:19;;;;;;;20.02;4.30;;;;;;;;;;5096311;28;20306;-73
2022/01/14 11:27:52;;;;;;;19.93;4.07;;;;;;;;;;5096548;28;20408;-76
2022/01/14 11:30:18;;;;;;;16.83;3.93;;;;;;;;;;5094867;28;20292;-73
2022/01/14 11:32:54;;;;;;;13.97;3.93;;;;;;;;;;5096417;28;20282;-73
2022/01/14 11:35:24;;;;;;;15.43;3.83;;;;;;;;;;5096205;28;20332;-73
2022/01/14 11:37:51;;;;;;;20.17;4.13;;;;;;;;;;5095426;28;20317;-73
2022/01/14 11:40:17;;;;;;;23.33;4.40;;;;;;;;;;5095698;28;20807;-76
2022/01/14 11:42:45;;;;;;;22.07;4.93;;;;;;;;;;5096450;28;20283;-73
2022/01/14 11:45:12;;;;;;;21.17;4.77;;;;;;;;;;5095851;28;20301;-73
2022/01/14 11:47:45;;;;;;;19.90;3.90;;;;;;;;;;5095243;28;20467;-73
2022/01/14 11:50:23;;;;;;;19.67;4.67;;;;;;;;;;5095875;28;20287;-73
2022/01/14 11:52:50;;;;;;;17.50;4.30;;;;;;;;;;5096085;28;20282;-73
2022/01/14 11:55:19;;;;;;;19.73;4.10;;;;;;;;;;5095710;28;20280;-74
2022/01/14 11:57:47;;;;;;;22.13;4.43;;;;;;;;;;5096022;28;20289;-73
2022/01/14 12:00:33;;;;;;;19.17;4.03;;;;;;;;;;5094745;28;20282;-75
2022/01/14 12:03:09;;;;;;;14.97;5.07;;;;;;;;;;5096107;28;20703;-72
2022/01/14 12:05:37;;;;;;;19.07;4.60;;;;;;;;;;5094682;28;20396;-74
2022/01/14 12:08:04;;;;;;;25.63;5.03;;;;;;;;;;5095699;28;20294;-81
2022/01/14 12:10:30;;;;;;;18.83;3.97;;;;;;;;;;5094587;28;20294;-77
2022/01/14 12:13:15;;;;;;;21.90;4.63;;;;;;;;;;5095940;28;20282;-79
2022/01/14 12:15:55;;;;;;;19.73;3.92;;;;;;;;;;5086667;28;20278;-74
2022/01/14 12:19:03;;;;;;;16.83;3.80;;;;;;;;;;5090198;28;20048;-77
2022/01/14 12:21:40;;;;;;;23.47;4.90;;;;;;;;;;5047097;28;20433;-76
2022/01/14 12:24:16;;;;;;;24.17;4.70;;;;;;;;;;5046818;28;20296;-78
2022/01/14 12:26:42;;;;;;;;;;;;;;;;;;5072053;28;20369;-74
2022/01/14 12:29:10;;;;;;;22.63;5.60;;;;;;;;;;5089908;28;20376;-74
2022/01/14 12:31:54;;;;;;;16.23;3.90;;;;;;;;;;5090004;28;20318;-74
2022/01/14 12:34:20;;;;;;;23.10;4.97;;;;;;;;;;5088916;28;20383;-75
2022/01/14 12:36:47;;;;;;;20.83;4.37;;;;;;;;;;5087108;28;20811;-75
2022/01/14 12:39:13;;;;;;;19.37;4.57;;;;;;;;;;5088281;28;20296;-75
2022/01/14 12:41:39;;;;;;;21.30;4.90;;;;;;;;;;5089655;28;20282;-76
2022/01/14 12:44:05;;;;;;;19.93;4.80;;;;;;;;;;5084009;28;20290;-78
2022/01/14 12:46:38;;;;;;;25.10;5.17;;;;;;;;;;5103513;28;20290;-73
2022/01/14 12:49:09;;;;;;;18.60;4.53;;;;;;;;;;5088413;28;20282;-75
2022/01/14 12:51:35;;;;;;;18.70;4.37;;;;;;;;;;5088168;28;20290;-74
2022/01/14 12:54:04;;;;;;;17.47;4.80;;;;;;;;;;5088233;28;20792;-76
2022/01/14 12:56:35;;;;;;;18.53;4.77;;;;;;;;;;5085706;28;20286;-77
2022/01/14 12:59:03;;;;;;;21.27;4.50;;;;;;;;;;5089902;28;20411;-74
2022/01/14 13:01:40;;;;;;;21.47;4.90;;;;;;;;;;5088109;28;20401;-76
2022/01/14 13:04:11;;;;;;;29.57;5.27;;;;;;;;;;5069518;28;20298;-74
2022/01/14 13:06:56;;;;;;;30.17;5.03;;;;;;;;;;5084571;28;20801;-74
2022/01/14 13:09:24;;;;;;;27.52;4.68;;;;;;;;;;5089576;28;20309;-75
2022/01/14 13:11:50;;;;;;;17.37;5.00;;;;;;;;;;5089179;28;20044;-74
2022/01/14 13:14:19;;;;;;;25.93;5.60;;;;;;;;;;5087402;28;20283;-74
2022/01/14 13:16:50;;;;;;;24.77;5.03;;;;;;;;;;5085850;28;20703;-73
2022/01/14 13:19:22;;;;;;;28.03;5.43;;;;;;;;;;5088020;28;21197;-74
2022/01/14 13:21:48;;;;;;;21.37;4.87;;;;;;;;;;5089203;28;20362;-79
2022/01/14 13:24:18;;;;;;;22.10;4.97;;;;;;;;;;5088999;28;20829;-73
2022/01/14 13:26:44;;;;;;;21.13;4.60;;;;;;;;;;5086421;28;20282;-73
2022/01/14 13:29:10;;;;;;;28.47;5.60;;;;;;;;;;5087345;28;20856;-74
2022/01/14 13:31:37;;;;;;;23.90;4.97;;;;;;;;;;5088772;28;20274;-77
2022/01/14 13:34:03;;;;;;;18.93;4.97;;;;;;;;;;5087971;28;20369;-75
2022/01/14 13:36:29;;;;;;;25.97;5.07;;;;;;;;;;5085823;28;20321;-74
2022/01/14 13:39:12;;;;;;;22.93;5.10;;;;;;;;;;5087563;28;20347;-74
2022/01/14 13:41:41;;;;;;;28.10;5.20;;;;;;;;;;5087080;28;20324;-75
2022/01/14 13:44:17;;;;;;;23.70;4.67;;;;;;;;;;5088311;28;20305;-74
2022/01/14 13:46:49;;;;;;;25.53;5.87;;;;;;;;;;5086146;28;20353;-75
2022/01/14 13:49:20;;;;;;;28.37;4.73;;;;;;;;;;5088119;28;20282;-73
2022/01/14 13:51:47;;;;;;;25.30;5.37;;;;;;;;;;5088121;28;20308;-76
2022/01/14 13:54:17;;;;;;;30.67;5.60;;;;;;;;;;5087880;28;20301;-77
2022/01/14 13:56:43;;;;;;;29.20;5.00;;;;;;;;;;5084540;28;20293;-74
2022/01/14 13:59:09;;;;;;;32.23;6.00;;;;;;;;;;5088209;28;20346;-74
2022/01/14 14:01:36;;;;;;;27.10;5.73;;;;;;;;;;5086472;28;20334;-74
2022/01/14 14:04:14;;;;;;;33.63;6.13;;;;;;;;;;5088497;28;20750;-76
2022/01/14 14:06:44;;;;;;;32.03;5.47;;;;;;;;;;5084699;28;20290;-79
2022/01/14 14:16:53;;;;;;;30.73;5.75;;;;;;;;;;5084589;28;20290;-74
2022/01/14 14:19:19;;;;;;;30.97;5.93;;;;;;;;;;5089882;28;20048;-76
2022/01/14 14:21:46;;;;;;;38.13;6.27;;;;;;;;;;5093377;28;20293;-75
2022/01/14 14:24:13;;;;;;;29.60;6.27;;;;;;;;;;5087674;28;20298;-73
2022/01/14 14:26:42;;;;;;;33.50;6.73;;;;;;;;;;5087030;28;20290;-72
2022/01/14 14:29:23;;;;;;;30.97;6.17;;;;;;;;;;5086719;28;20289;-74
2022/01/14 14:31:49;;;;;;;32.90;6.40;;;;;;;;;;5087088;28;20698;-73
2022/01/14 14:34:15;;;;;;;27.73;5.67;;;;;;;;;;5087714;28;20281;-74
2022/01/14 14:36:42;;;;;;;29.57;5.77;;;;;;;;;;5087365;28;20285;-79
2022/01/14 14:39:10;;;;;;;26.10;6.10;;;;;;;;;;5087891;28;20346;-75
2022/01/14 14:41:37;;;;;;;30.53;6.27;;;;;;;;;;5073818;28;20282;-73
2022/01/14 14:44:03;;;;;;;36.63;6.50;;;;;;;;;;5071911;28;21004;-73
2022/01/14 14:46:31;;;;;;;32.17;6.43;;;;;;;;;;5079755;28;20696;-74
2022/01/14 14:48:58;;;;;;;27.93;6.33;;;;;;;;;;5066250;28;20279;-72
2022/01/14 14:51:25;;;;;;;31.90;6.27;;;;;;;;;;5074131;28;20362;-73
2022/01/14 14:53:51;;;;;;;33.73;7.40;;;;;;;;;;5067236;28;20294;-73
2022/01/14 14:56:17;;;;;;;37.13;7.10;;;;;;;;;;5078880;28;20278;-78
2022/01/14 14:58:44;;;;;;;30.10;7.10;;;;;;;;;;5067837;28;20350;-74
2022/01/14 15:01:10;;;;;;;37.90;7.07;;;;;;;;;;5075226;28;20286;-75
2022/01/14 15:03:39;;;;;;;36.03;6.40;;;;;;;;;;5066917;28;20366;-74